Latest Weather Observations for Swan Island

IDT60801

Issued at 4:02 am EST Saturday 29 April 2017 (issued every 30 minutes, with the page automatically refreshed every 10 minutes)

About weather observations | Map of weather stations | Latest weather observations for TAS | Other Formats
Station Details ID: 092123 Name: SWAN ISLAND Lat: -40.73 Lon: 148.12 Height: 15.0 m
Data from the previous 72 hours. | See also: Recent months at Swan Island
Date/Time
EST
Temp
°C
App
Temp
°C
Dew
Point
°C
Rel
Hum
%
Delta-T
°C
Wind Press
QNH
hPa
Press
MSL
hPa
Rain since
9am
mm
Dir  Spd
km/h
Gust
km/h
Spd
kts
Gust
kts
29/03:30am 15.7 9.9 12.6 82 1.7 W 35 56 19 30 1012.8 1012.7 0.0
29/03:02am 15.9 9.4 12.8 82 1.7 W 39 57 21 31 1012.6 1012.5 0.0
29/03:00am 15.8 8.9 12.7 82 1.7 W 41 57 22 31 1012.5 1012.4 0.0
29/02:30am 15.8 9.3 12.9 83 1.6 W 39 59 21 32 1012.8 1012.7 0.0
29/02:06am 15.8 10.4 12.7 82 1.7 W 33 52 18 28 1013.0 1012.9 0.0
29/02:00am 15.9 10.1 12.8 82 1.7 W 35 52 19 28 1013.2 1013.1 0.0
29/01:30am 15.7 8.8 12.8 83 1.6 W 41 63 22 34 1013.0 1012.9 0.0
29/01:00am 15.6 9.8 12.7 83 1.6 W 35 59 19 32 1012.9 1012.8 0.0
29/12:30am 15.8 8.5 12.9 83 1.6 W 43 65 23 35 1012.9 1012.8 0.0
29/12:00am 15.8 8.9 12.9 83 1.6 W 41 63 22 34 1012.9 1012.8 0.0
 
Date/Time
EST
Temp
°C
App
Temp
°C
Dew
Point
°C
Rel
Hum
%
Delta-T
°C
Wind Press
QNH
hPa
Press
MSL
hPa
Rain since
9am
mm
Dir  Spd
km/h
Gust
km/h
Spd
kts
Gust
kts
28/11:30pm 15.8 8.9 12.9 83 1.6 W 41 63 22 34 1013.0 1012.9 0.0
28/11:03pm 16.0 9.5 12.9 82 1.7 W 39 57 21 31 1012.9 1012.8 0.0
28/11:00pm 16.0 9.2 13.1 83 1.6 W 41 57 22 31 1012.9 1012.8 0.0
28/10:30pm 16.0 9.2 13.1 83 1.6 W 41 63 22 34 1013.1 1013.0 0.0
28/10:03pm 15.8 9.7 12.9 83 1.6 W 37 57 20 31 1013.6 1013.5 0.0
28/10:00pm 16.0 10.4 13.3 84 1.5 W 35 52 19 28 1013.7 1013.6 0.0
28/09:30pm 16.1 9.3 13.0 82 1.7 W 41 61 22 33 1013.8 1013.7 0.0
28/09:00pm 16.2 10.8 12.9 81 1.8 W 33 54 18 29 1014.2 1014.1 0.0
28/08:48pm 16.1 10.9 12.8 81 1.8 W 32 50 17 27 1014.4 1014.3 0.0
28/08:30pm 16.3 11.2 13.0 81 1.8 W 32 48 17 26 1014.5 1014.4 0.0
28/08:00pm 16.0 10.2 12.7 81 1.8 W 35 54 19 29 1014.6 1014.5 0.0
28/07:30pm 16.1 8.7 12.5 79 2.0 W 43 65 23 35 1014.5 1014.4 0.0
28/07:00pm 16.2 9.6 12.7 80 1.9 WNW 39 59 21 32 1014.4 1014.3 0.0
28/06:30pm 16.3 10.1 12.8 80 1.9 W 37 56 20 30 1014.4 1014.3 0.0
28/06:00pm 16.1 9.8 12.3 78 2.1 W 37 56 20 30 1014.3 1014.2 0.0
28/05:30pm 16.1 9.8 12.3 78 2.1 W 37 59 20 32 1014.0 1013.9 0.0
28/05:01pm 16.0 9.2 11.8 76 2.3 W 39 57 21 31 1013.8 1013.7 0.0
28/05:00pm 15.9 8.6 11.7 76 2.3 W 41 57 22 31 1013.8 1013.7 0.0
28/04:32pm 16.0 9.5 11.6 75 2.4 W 37 57 20 31 1013.6 1013.5 0.0
28/04:30pm 15.8 8.8 11.4 75 2.4 W 39 57 21 31 1013.5 1013.4 0.0
28/04:08pm 15.8 9.9 11.2 74 2.5 WNW 33 57 18 31 1013.9 1013.8 0.0
28/04:00pm 16.0 10.2 11.4 74 2.5 WNW 33 48 18 26 1014.0 1013.9 0.0
28/03:40pm 16.1 9.9 11.5 74 2.5 W 35 54 19 29 1014.1 1014.0 0.0
28/03:30pm 16.1 8.7 11.1 72 2.7 WNW 41 57 22 31 1014.2 1014.1 0.0
28/03:00pm 16.1 8.8 11.5 74 2.5 WNW 41 59 22 32 1014.3 1014.2 0.0
28/02:32pm 16.4 11.3 12.0 75 2.4 W 30 48 16 26 1014.7 1014.6 0.0
28/02:30pm 16.5 11.1 12.1 75 2.4 WNW 32 48 17 26 1014.7 1014.6 0.0
28/02:16pm 16.0 10.2 11.6 75 2.4 W 33 56 18 30 1014.7 1014.6 0.0
28/02:00pm 16.3 9.7 11.5 73 2.6 WNW 37 54 20 29 1014.7 1014.6 0.0
28/01:35pm 15.9 10.8 11.9 77 2.2 W 30 50 16 27 1014.9 1014.8 0.0
28/01:30pm 15.8 10.2 11.6 76 2.3 W 32 48 17 26 1015.1 1015.0 0.0
28/01:10pm 16.6 10.5 11.7 73 2.7 W 35 54 19 29 1015.2 1015.1 0.0
28/01:00pm 16.2 10.1 11.6 74 2.5 W 35 50 19 27 1015.3 1015.2 0.0
28/12:30pm 15.9 10.2 11.7 76 2.3 W 33 46 18 25 1015.8 1015.7 0.0
28/12:00pm 16.1 10.0 11.9 76 2.3 W 35 48 19 26 1015.9 1015.8 0.0
28/11:30am 16.3 9.4 11.7 74 2.5 W 39 52 21 28 1016.4 1016.3 0.0
28/11:00am 16.4 10.8 12.0 75 2.4 W 33 50 18 27 1016.3 1016.2 0.0
28/10:30am 17.1 12.2 12.6 75 2.5 W 30 44 16 24 1016.7 1016.6 0.0
28/10:00am 16.3 10.8 11.7 74 2.5 W 32 46 17 25 1016.9 1016.8 0.0
28/09:30am 17.0 11.5 12.3 74 2.6 W 33 43 18 23 1016.9 1016.8 0.0
28/09:00am 16.1 11.4 12.1 77 2.2 W 28 37 15 20 1017.2 1017.1 0.0
28/08:30am 15.9 11.9 11.7 76 2.3 W 24 39 13 21 1017.3 1017.2 0.0
28/08:00am 15.8 10.2 11.6 76 2.3 W 32 43 17 23 1017.2 1017.1 0.0
28/07:30am 15.6 10.5 12.0 79 2.0 W 30 41 16 22 1016.9 1016.8 0.0
28/07:00am 15.2 9.1 11.6 79 1.9 W 35 46 19 25 1016.7 1016.6 0.0
28/06:30am 15.5 10.5 12.3 81 1.7 W 30 46 16 25 1016.1 1016.0 0.0
28/06:00am 15.3 9.3 12.2 82 1.7 W 35 50 19 27 1015.8 1015.7 0.0
28/05:30am 15.4 9.5 12.5 83 1.6 W 35 54 19 29 1015.8 1015.7 0.0
28/05:23am 15.4 9.9 12.5 83 1.6 W 33 54 18 29 1015.8 1015.7 0.0
28/05:00am 15.7 10.3 12.3 80 1.9 W 32 48 17 26 1015.9 1015.8 0.0
28/04:48am 15.7 11.1 12.3 80 1.9 W 28 48 15 26 1015.8 1015.7 0.0
28/04:30am 15.6 9.7 12.4 81 1.8 W 35 52 19 28 1015.7 1015.6 0.0
28/04:00am 15.4 9.8 12.2 81 1.7 W 33 48 18 26 1015.6 1015.5 0.0
28/03:47am 15.4 10.4 12.2 81 1.7 W 30 50 16 27 1015.8 1015.7 0.0
28/03:30am 15.2 10.1 12.0 81 1.7 W 30 44 16 24 1015.8 1015.7 0.0
28/03:00am 15.5 9.2 12.3 81 1.7 W 37 52 20 28 1015.6 1015.5 0.0
28/02:36am 15.2 9.2 12.2 82 1.6 W 35 57 19 31 1015.7 1015.6 0.0
28/02:30am 15.0 9.4 12.0 82 1.6 W 33 48 18 26 1015.8 1015.7 0.0
28/02:18am 15.2 10.5 12.0 81 1.7 W 28 48 15 26 1015.9 1015.8 0.0
28/02:00am 15.3 8.9 11.9 80 1.8 W 37 50 20 27 1016.0 1015.9 0.0
28/01:30am 15.1 9.2 11.3 78 2.0 W 33 46 18 25 1016.1 1016.0 0.0
28/01:00am 15.0 9.1 11.2 78 2.0 W 33 46 18 25 1016.4 1016.3 0.0
28/12:30am 14.9 9.1 10.9 77 2.1 W 32 46 17 25 1016.6 1016.5 0.0
28/12:00am 14.9 8.9 10.7 76 2.2 W 33 48 18 26 1016.6 1016.5 0.0
 
Date/Time
EST
Temp
°C
App
Temp
°C
Dew
Point
°C
Rel
Hum
%
Delta-T
°C
Wind Press
QNH
hPa
Press
MSL
hPa
Rain since
9am
mm
Dir  Spd
km/h
Gust
km/h
Spd
kts
Gust
kts
27/11:30pm 15.1 10.4 10.7 75 2.3 W 26 37 14 20 1017.0 1016.9 0.0
27/11:00pm 14.6 9.7 10.0 74 2.4 W 26 37 14 20 1016.9 1016.8 0.0
27/10:30pm 14.6 10.1 10.0 74 2.4 W 24 35 13 19 1017.5 1017.4 0.0
27/10:00pm 13.8 8.6 9.0 73 2.4 W 26 39 14 21 1017.3 1017.2 0.0
27/09:30pm 13.6 8.4 8.7 72 2.5 W 26 37 14 20 1017.5 1017.4 0.0
27/09:00pm 11.9 9.2 7.2 73 2.3 W 11 20 6 11 1017.6 1017.5 0.0
27/08:30pm 11.3 8.7 6.0 70 2.5 WSW 9 13 5 7 1018.1 1018.0 0.0
27/08:00pm 11.1 8.4 5.6 69 2.5 WSW 9 15 5 8 1018.2 1018.1 0.0
27/07:30pm 11.6 8.5 5.7 67 2.7 WSW 11 17 6 9 1018.3 1018.2 0.0
27/07:00pm 11.7 7.8 5.3 65 2.9 WSW 15 24 8 13 1018.4 1018.3 0.0
27/06:30pm 11.5 7.5 4.7 63 3.1 WSW 15 22 8 12 1018.3 1018.2 0.0
27/06:00pm 11.5 7.5 4.7 63 3.1 WSW 15 24 8 13 1017.9 1017.8 0.0
27/05:30pm 11.4 7.4 4.8 64 3.0 WSW 15 26 8 14 1017.6 1017.5 0.0
27/05:00pm 11.8 7.3 4.3 60 3.4 WSW 17 30 9 16 1017.8 1017.7 0.0
27/04:30pm 12.5 7.4 4.2 57 3.8 W 20 32 11 17 1017.8 1017.7 0.0
27/04:00pm 12.2 7.4 4.4 59 3.5 W 19 28 10 15 1017.9 1017.8 0.0
27/03:30pm 12.7 8.1 3.6 54 4.1 W 17 24 9 13 1017.2 1017.1 0.0
27/03:00pm 13.5 10.9 3.3 50 4.6 NNW 6 9 3 5 1017.1 1017.0 0.0
27/02:30pm 13.2 9.8 3.8 53 4.2 NW 11 17 6 9 1017.6 1017.5 0.0
27/02:00pm 13.8 9.8 3.0 48 4.8 W 13 19 7 10 1018.0 1017.9 0.0
27/01:30pm 13.8 10.5 2.4 46 5.0 WNW 9 15 5 8 1017.9 1017.8 0.0
27/01:00pm 13.9 10.3 2.8 47 4.9 WNW 11 17 6 9 1018.5 1018.4 0.0
27/12:30pm 13.7 9.7 2.9 48 4.8 W 13 20 7 11 1018.7 1018.6 0.0
27/12:00pm 13.3 9.5 1.9 46 4.9 WNW 11 19 6 10 1018.8 1018.7 0.0
27/11:30am 13.3 9.6 2.2 47 4.8 WNW 11 15 6 8 1019.2 1019.1 0.0
27/11:00am 13.2 10.0 3.3 51 4.4 W 9 13 5 7 1019.1 1019.0 0.0
27/10:30am 12.1 8.9 0.8 46 4.7 SW 7 13 4 7 1019.2 1019.1 0.0
27/10:00am 12.0 8.9 1.6 49 4.4 SSW 7 15 4 8 1019.3 1019.2 0.0
27/09:30am 11.1 7.4 0.2 47 4.4 SSW 9 15 5 8 1019.4 1019.3 0.0
27/09:00am 10.6 7.0 0.6 50 4.1 SSW 9 15 5 8 1019.1 1019.0 3.4
27/08:30am 10.1 6.5 0.7 52 3.8 SSW 9 15 5 8 1019.0 1018.9 3.4
27/08:00am 9.5 5.5 0.4 53 3.7 SSW 11 19 6 10 1018.9 1018.8 3.4
27/07:30am 7.2 4.2 2.1 70 2.1 SW 7 11 4 6 1018.9 1018.8 3.4
27/07:00am 6.3 2.4 1.4 71 2.0 SW 11 15 6 8 1018.8 1018.7 3.4
27/06:30am 7.0 3.0 0.5 63 2.6 SW 11 17 6 9 1018.5 1018.4 3.4
27/06:00am 7.8 4.3 1.0 62 2.7 SSW 9 19 5 10 1018.2 1018.1 3.4
27/05:30am 8.2 3.9 0.9 60 2.9 SSW 13 19 7 10 1017.6 1017.5 3.4
27/05:00am 8.3 4.0 1.2 61 2.9 SSW 13 22 7 12 1017.1 1017.0 3.4
27/04:30am 8.1 3.5 1.3 62 2.8 S 15 24 8 13 1016.7 1016.6 3.4
27/04:00am 7.8 4.2 2.9 71 2.1 SSW 11 22 6 12 1016.6 1016.5 3.4
27/03:30am 7.3 3.3 2.8 73 1.9 SW 13 20 7 11 1016.5 1016.4 3.4
27/03:00am 7.2 3.6 2.9 74 1.8 SW 11 17 6 9 1016.6 1016.5 3.4
27/02:30am 7.2 3.2 2.9 74 1.8 SW 13 19 7 10 1016.6 1016.5 3.4
27/02:00am 7.0 2.9 2.5 73 1.9 SW 13 20 7 11 1016.7 1016.6 3.4
27/01:30am 7.5 3.1 2.8 72 2.0 SW 15 22 8 12 1016.6 1016.5 3.4
27/01:00am 7.7 3.7 2.8 71 2.1 SW 13 20 7 11 1016.4 1016.3 3.4
27/12:30am 7.6 4.0 2.7 71 2.0 SW 11 17 6 9 1016.2 1016.1 3.4
27/12:00am 7.8 3.8 2.9 71 2.1 SW 13 22 7 12 1016.0 1015.9 3.4
 
Date/Time
EST
Temp
°C
App
Temp
°C
Dew
Point
°C
Rel
Hum
%
Delta-T
°C
Wind Press
QNH
hPa
Press
MSL
hPa
Rain since
9am
mm
Dir  Spd
km/h
Gust
km/h
Spd
kts
Gust
kts
26/11:30pm 8.1 3.8 3.0 70 2.2 SW 15 24 8 13 1015.7 1015.6 3.4
26/11:00pm 8.4 4.5 3.5 71 2.1 SW 13 20 7 11 1015.6 1015.5 3.4
26/10:30pm 8.4 4.4 2.8 68 2.4 SW 13 24 7 13 1015.4 1015.3 3.4
26/10:00pm 9.3 4.2 3.3 66 2.6 S 19 30 10 16 1015.2 1015.1 3.4
26/09:30pm 9.4 4.1 2.9 64 2.8 S 20 32 11 17 1014.9 1014.8 3.4
26/09:00pm 9.8 4.7 3.3 64 2.8 S 19 28 10 15 1014.4 1014.3 3.4
26/08:30pm 10.1 4.9 3.4 63 2.9 S 20 33 11 18 1014.0 1013.9 3.4
26/08:00pm 10.0 6.2 4.0 66 2.6 SSW 13 24 7 13 1013.5 1013.4 3.4
26/07:30pm 10.1 6.6 3.6 64 2.8 S 11 15 6 8 1013.1 1013.0 3.4
26/07:00pm 10.1 7.1 4.0 66 2.7 SSW 9 13 5 7 1012.8 1012.7 3.4
26/06:30pm 10.8 7.3 3.4 60 3.2 S 11 19 6 10 1012.2 1012.1 3.4
26/06:00pm 11.0 6.4 3.8 61 3.2 SSE 17 24 9 13 1011.7 1011.6 3.4
26/05:30pm 10.8 5.8 3.6 61 3.2 SSE 19 24 10 13 1011.1 1011.0 3.4
26/05:00pm 10.8 7.1 4.5 65 2.8 S 13 19 7 10 1010.5 1010.5 3.4
26/04:30pm 10.8 6.7 4.5 65 2.8 SSE 15 22 8 12 1010.0 1010.0 3.4
26/04:00pm 10.7 5.0 4.8 67 2.7 SSE 24 32 13 17 1009.5 1009.5 3.4
26/03:30pm 10.4 4.7 5.0 69 2.4 SSE 24 33 13 18 1008.9 1008.9 3.4
26/03:00pm 9.9 4.6 5.1 72 2.2 SSE 22 33 12 18 1008.5 1008.5 3.4
26/02:30pm 10.4 6.1 5.2 70 2.4 S 17 26 9 14 1008.1 1008.1 3.0
26/02:00pm 10.6 5.5 6.2 74 2.1 S 22 33 12 18 1007.5 1007.5 3.0
26/01:30pm 9.8 4.6 7.1 83 1.3 SSE 24 33 13 18 1007.2 1007.2 3.0
26/01:00pm 9.2 3.2 7.0 86 1.0 SSE 28 41 15 22 1007.0 1007.0 3.0
26/12:30pm 9.0 3.0 7.0 87 0.9 SSE 28 39 15 21 1006.7 1006.7 2.8
26/12:02pm 9.2 2.9 7.2 87 0.9 SSE 30 50 16 27 1006.2 1006.2 2.2
26/12:00pm 9.6 3.7 7.7 88 0.9 SSE 28 39 15 21 1006.2 1006.2 2.0
26/11:30am 9.9 5.2 7.8 87 1.0 S 22 32 12 17 1005.8 1005.8 1.6
26/11:00am 10.1 5.1 8.2 88 0.9 S 24 35 13 19 1005.4 1005.4 1.4
26/10:30am 10.4 4.0 8.7 89 0.8 SSE 32 44 17 24 1004.5 1004.5 1.4
26/10:00am 10.7 4.4 8.8 88 0.9 SSE 32 46 17 25 1004.0 1004.0 1.0
26/09:30am 11.2 6.1 9.3 88 1.0 SSE 26 33 14 18 1003.5 1003.5 0.8
26/09:00am 11.2 5.7 9.3 88 1.0 SSE 28 37 15 20 1003.2 1003.2 8.0
26/08:30am 12.1 7.5 9.8 86 1.2 S 24 35 13 19 1002.6 1002.6 7.6
26/08:00am 12.4 7.7 10.6 89 0.9 SSE 26 32 14 17 1001.9 1001.9 7.6
26/07:30am 12.2 9.3 10.9 92 0.7 SSE 17 22 9 12 1001.3 1001.3 7.6
26/07:00am 12.2 11.4 11.1 93 0.6 S 6 9 3 5 1000.8 1000.8 7.6
26/06:30am 12.2 11.4 11.1 93 0.6 SSW 6 9 3 5 1000.4 1000.4 7.6
26/06:00am 12.2 11.2 11.1 93 0.6 SSW 7 11 4 6 1000.1 1000.1 7.6
26/05:30am 12.4 11.5 11.3 93 0.6 SW 7 11 4 6 999.6 999.6 7.6
26/05:00am 12.6 11.0 11.5 93 0.6 W 11 15 6 8 999.6 999.6 7.6
26/04:30am 12.4 11.6 11.1 92 0.7 WSW 6 7 3 4 999.5 999.5 7.4

Other Formats:

Comma delimited format used in spreadsheet applications
http://www.bom.gov.au/fwo/IDT60801/IDT60801.95985.axf

JavaScript Object Notation format (JSON) in row-major order
http://www.bom.gov.au/fwo/IDT60801/IDT60801.95985.json